createdAt,value
2022-09-17T00:03:09.979Z,12.93
2022-09-17T00:08:16.553Z,12.89
2022-09-17T00:13:22.265Z,12.79
2022-09-17T00:18:27.733Z,12.78
2022-09-17T00:23:33.304Z,12.69
2022-09-17T00:28:39.144Z,12.63
2022-09-17T00:33:44.605Z,12.59
2022-09-17T00:38:55.891Z,12.55
2022-09-17T00:44:03.853Z,12.55
2022-09-17T00:49:18.305Z,12.58
2022-09-17T00:54:24.674Z,12.52
2022-09-17T00:59:30.391Z,12.50
2022-09-17T01:04:35.868Z,12.43
2022-09-17T01:10:07.450Z,12.49
2022-09-17T01:15:35.453Z,12.45
2022-09-17T01:21:02.102Z,12.37
2022-09-17T01:26:16.648Z,12.32
2022-09-17T01:31:37.391Z,12.30
2022-09-17T01:36:57.619Z,12.35
2022-09-17T01:42:18.830Z,12.34
2022-09-17T01:47:26.787Z,12.30
2022-09-17T01:52:35.515Z,12.25
2022-09-17T01:57:56.104Z,12.20
2022-09-17T02:03:13.446Z,12.25
2022-09-17T02:08:26.229Z,12.25
2022-09-17T02:13:34.724Z,12.27
2022-09-17T02:18:45.942Z,12.34
2022-09-17T02:24:04.172Z,12.30
2022-09-17T02:29:12.743Z,12.27
2022-09-17T02:34:18.431Z,12.29
2022-09-17T02:39:24.191Z,12.32
2022-09-17T02:44:55.392Z,12.36
2022-09-17T02:50:20.160Z,12.44
2022-09-17T02:55:46.551Z,12.49
2022-09-17T03:00:53.343Z,12.48
2022-09-17T03:05:59.089Z,12.55
2022-09-17T03:11:05.992Z,12.61
2022-09-17T03:16:11.829Z,12.72
2022-09-17T03:21:17.353Z,12.75
2022-09-17T03:26:22.820Z,12.82
2022-09-17T03:31:29.473Z,12.90
2022-09-17T03:36:35.068Z,12.95
2022-09-17T03:41:40.614Z,13.01
2022-09-17T03:46:46.463Z,13.06
2022-09-17T03:51:51.967Z,13.12
2022-09-17T03:56:57.349Z,13.14
2022-09-17T04:02:03.118Z,13.21
2022-09-17T04:07:08.841Z,13.23
2022-09-17T04:12:14.591Z,13.26
2022-09-17T04:17:20.141Z,13.29
2022-09-17T04:22:26.069Z,13.36
2022-09-17T04:27:31.449Z,13.40
2022-09-17T04:32:36.956Z,13.47
2022-09-17T04:37:42.370Z,13.48
2022-09-17T04:42:47.754Z,13.49
2022-09-17T04:47:53.505Z,13.55
2022-09-17T04:52:58.893Z,13.56
2022-09-17T04:58:04.643Z,13.60
2022-09-17T05:03:10.588Z,13.64
2022-09-17T05:08:15.970Z,13.71
2022-09-17T05:13:21.622Z,13.73
2022-09-17T05:18:27.014Z,13.72
2022-09-17T05:23:32.385Z,13.77
2022-09-17T05:28:37.761Z,13.81
2022-09-17T05:33:43.162Z,13.89
2022-09-17T05:38:48.740Z,13.91
2022-09-17T05:43:54.204Z,14.00
2022-09-17T05:48:59.877Z,14.02
2022-09-17T05:54:05.411Z,14.08
2022-09-17T05:59:11.000Z,14.13
2022-09-17T06:04:18.038Z,14.19
2022-09-17T06:09:23.406Z,14.25
2022-09-17T06:14:29.128Z,14.36
2022-09-17T06:19:34.545Z,14.43
2022-09-17T06:24:39.957Z,14.60
2022-09-17T06:29:45.410Z,14.65
2022-09-17T06:34:50.869Z,14.73
2022-09-17T06:39:56.452Z,14.83
2022-09-17T06:45:07.128Z,14.84
2022-09-17T06:50:09.516Z,14.93
2022-09-17T06:55:16.011Z,14.98
2022-09-17T07:00:21.757Z,15.01
2022-09-17T07:05:28.169Z,15.09
2022-09-17T07:10:33.726Z,15.14
2022-09-17T07:15:39.412Z,15.36
2022-09-17T07:20:44.899Z,15.49
2022-09-17T07:25:58.857Z,15.39
2022-09-17T07:31:05.816Z,15.43
2022-09-17T07:36:13.722Z,15.43
2022-09-17T07:41:19.630Z,15.45
2022-09-17T07:46:25.322Z,15.58
2022-09-17T07:51:30.784Z,15.73
2022-09-17T07:56:36.435Z,15.54
2022-09-17T08:01:42.554Z,15.43
2022-09-17T08:06:51.177Z,15.31
2022-09-17T08:11:57.120Z,15.31
2022-09-17T08:17:02.591Z,15.31
2022-09-17T08:22:07.972Z,15.35
2022-09-17T08:27:14.011Z,15.32
2022-09-17T08:32:19.662Z,15.41
2022-09-17T08:37:25.196Z,15.43
2022-09-17T08:42:42.832Z,15.51
2022-09-17T08:47:48.898Z,15.54
2022-09-17T08:53:30.989Z,15.75
2022-09-17T08:58:59.229Z,15.93
2022-09-17T09:04:19.771Z,15.97
2022-09-17T09:09:28.428Z,16.14
2022-09-17T09:14:39.701Z,16.21
2022-09-17T09:19:47.739Z,16.36
2022-09-17T09:24:58.949Z,16.51
2022-09-17T09:30:13.588Z,16.35
2022-09-17T09:35:22.070Z,16.14
2022-09-17T09:40:44.864Z,16.23
2022-09-17T09:46:26.128Z,16.38
2022-09-17T09:51:54.435Z,16.48
2022-09-17T09:57:07.590Z,16.56
2022-09-17T10:02:13.877Z,16.91
2022-09-17T10:07:19.597Z,17.02
2022-09-17T10:12:25.058Z,16.96
2022-09-17T10:17:30.732Z,17.02
2022-09-17T10:22:38.932Z,17.16
2022-09-17T10:27:46.476Z,17.34
2022-09-17T10:33:14.615Z,17.43
2022-09-17T10:38:32.030Z,17.43
2022-09-17T10:43:37.680Z,17.24
2022-09-17T10:48:46.020Z,17.19
2022-09-17T10:54:03.162Z,17.32
2022-09-17T10:59:26.654Z,17.35
2022-09-17T11:04:50.031Z,17.41
2022-09-17T11:10:04.497Z,17.47
2022-09-17T11:15:31.180Z,17.74
2022-09-17T11:20:48.750Z,17.77
2022-09-17T11:26:01.098Z,17.93
2022-09-17T11:31:23.883Z,18.18
2022-09-17T11:36:41.182Z,18.22
2022-09-17T11:41:49.967Z,18.12
2022-09-17T11:46:58.489Z,18.03
2022-09-17T11:52:27.961Z,18.21
2022-09-17T11:57:36.650Z,18.21
2022-09-17T12:02:59.785Z,17.99
2022-09-17T12:08:29.003Z,18.18
2022-09-17T12:13:55.638Z,18.10
2022-09-17T12:19:36.214Z,18.10
2022-09-17T12:24:42.569Z,18.30
2022-09-17T12:30:09.118Z,18.41
2022-09-17T12:35:20.493Z,18.37
2022-09-17T12:40:57.726Z,18.47
2022-09-17T12:46:30.454Z,18.50
2022-09-17T12:51:41.899Z,18.50
2022-09-17T12:56:58.901Z,18.47
2022-09-17T13:02:07.421Z,18.32
2022-09-17T13:07:39.859Z,18.08
2022-09-17T13:13:00.325Z,17.72
2022-09-17T13:18:27.261Z,17.57
2022-09-17T13:23:43.652Z,17.73
2022-09-17T13:28:53.418Z,18.15
2022-09-17T13:34:03.264Z,18.27
2022-09-17T13:39:11.906Z,18.55
2022-09-17T13:44:20.460Z,18.85
2022-09-17T13:49:26.356Z,18.63
2022-09-17T13:54:39.592Z,18.23
2022-09-17T13:59:49.337Z,17.91
2022-09-17T14:04:57.531Z,17.65
2022-09-17T14:10:15.048Z,17.38
2022-09-17T14:15:39.532Z,17.21
2022-09-17T14:20:45.881Z,17.20
2022-09-17T14:25:56.913Z,16.95
2022-09-17T14:31:05.701Z,16.83
2022-09-17T14:36:14.185Z,16.73
2022-09-17T14:41:28.468Z,16.67
2022-09-17T14:46:46.304Z,16.69
2022-09-17T14:51:51.085Z,16.83
2022-09-17T14:57:02.267Z,16.80
2022-09-17T15:02:16.541Z,16.67
2022-09-17T15:07:23.358Z,16.56
2022-09-17T15:12:30.860Z,16.57
2022-09-17T15:17:36.822Z,16.53
2022-09-17T15:22:43.940Z,16.51
2022-09-17T15:27:49.464Z,16.53
2022-09-17T15:32:57.267Z,16.44
2022-09-17T15:38:24.330Z,16.37
2022-09-17T15:43:32.734Z,16.34
2022-09-17T15:48:39.807Z,16.22
2022-09-17T15:53:53.618Z,16.32
2022-09-17T15:59:02.862Z,16.33
2022-09-17T16:04:19.994Z,16.21
2022-09-17T16:09:43.718Z,16.13
2022-09-17T16:14:51.704Z,16.14
2022-09-17T16:20:01.414Z,16.10
2022-09-17T16:25:06.869Z,16.12
2022-09-17T16:30:15.372Z,16.07
2022-09-17T16:35:22.997Z,16.09
2022-09-17T16:40:28.843Z,16.05
2022-09-17T16:45:34.261Z,15.94
2022-09-17T16:50:41.951Z,15.91
2022-09-17T16:55:47.519Z,15.79
2022-09-17T17:00:53.373Z,15.65
2022-09-17T17:05:58.756Z,15.58
2022-09-17T17:11:04.233Z,15.58
2022-09-17T17:16:14.871Z,15.50
2022-09-17T17:21:21.553Z,15.50
2022-09-17T17:26:26.951Z,15.47
2022-09-17T17:31:32.494Z,15.49
2022-09-17T17:36:37.897Z,15.48
2022-09-17T17:41:43.466Z,15.42
2022-09-17T17:46:49.014Z,15.37
2022-09-17T17:51:54.775Z,15.35
2022-09-17T17:57:00.167Z,15.32
2022-09-17T18:02:05.814Z,15.31
2022-09-17T18:07:11.370Z,15.24
2022-09-17T18:12:17.557Z,15.19
2022-09-17T18:17:24.561Z,15.16
2022-09-17T18:22:29.994Z,15.14
2022-09-17T18:27:35.411Z,15.08
2022-09-17T18:32:40.811Z,15.09
2022-09-17T18:37:46.280Z,15.15
2022-09-17T18:42:51.682Z,15.06
2022-09-17T18:47:57.194Z,15.06
2022-09-17T18:53:03.076Z,15.10
2022-09-17T18:58:08.703Z,15.11
2022-09-17T19:03:14.306Z,15.12
2022-09-17T19:08:23.917Z,15.06
2022-09-17T19:13:34.946Z,14.96
2022-09-17T19:18:41.475Z,14.82
2022-09-17T19:23:49.165Z,14.66
2022-09-17T19:28:58.019Z,14.48
2022-09-17T19:34:05.145Z,14.32
2022-09-17T19:39:11.579Z,14.21
2022-09-17T19:44:18.308Z,14.16
2022-09-17T19:49:24.609Z,14.09
2022-09-17T19:54:30.085Z,14.09
2022-09-17T19:59:35.518Z,13.95
2022-09-17T20:04:41.286Z,13.80
2022-09-17T20:09:48.736Z,13.69
2022-09-17T20:14:55.145Z,13.57
2022-09-17T20:20:00.927Z,13.43
2022-09-17T20:25:07.295Z,13.40
2022-09-17T20:30:14.086Z,13.31
2022-09-17T20:35:19.543Z,13.23
2022-09-17T20:40:25.453Z,13.20
2022-09-17T20:45:31.229Z,13.06
2022-09-17T20:50:36.825Z,13.00
2022-09-17T20:55:42.259Z,12.92
2022-09-17T21:00:47.740Z,12.87
2022-09-17T21:05:53.141Z,12.83
2022-09-17T21:10:58.761Z,12.79
2022-09-17T21:16:04.584Z,12.76
2022-09-17T21:21:13.553Z,12.76
2022-09-17T21:26:21.495Z,12.67
2022-09-17T21:31:32.306Z,12.64
2022-09-17T21:36:38.785Z,12.65
2022-09-17T21:41:46.000Z,12.60
2022-09-17T21:46:53.115Z,12.56
2022-09-17T21:51:58.543Z,12.56
2022-09-17T21:57:04.011Z,12.57
2022-09-17T22:02:09.606Z,12.55
2022-09-17T22:07:15.053Z,12.56
2022-09-17T22:12:20.434Z,12.55
2022-09-17T22:17:26.298Z,12.58
2022-09-17T22:22:31.757Z,12.59
2022-09-17T22:27:37.139Z,12.59
2022-09-17T22:32:42.527Z,12.63
2022-09-17T22:37:47.944Z,12.64
2022-09-17T22:42:53.361Z,12.67
2022-09-17T22:47:58.766Z,12.69
2022-09-17T22:53:04.198Z,12.63
2022-09-17T22:58:09.853Z,12.64
2022-09-17T23:03:15.287Z,12.56
2022-09-17T23:08:20.670Z,12.51
2022-09-17T23:13:26.124Z,12.46
2022-09-17T23:18:32.524Z,12.51
2022-09-17T23:23:38.450Z,12.46
2022-09-17T23:28:44.408Z,12.47
2022-09-17T23:33:50.606Z,12.46
2022-09-17T23:38:57.585Z,12.50
2022-09-17T23:44:09.415Z,12.55
2022-09-17T23:49:15.284Z,12.48
2022-09-17T23:54:20.681Z,12.45
2022-09-17T23:59:27.615Z,12.48
